Terminal Aerodrome Forecast
Issued by NWS Louisville, KY

Home | Current Version | Previous Version | Text Only | Print | Product List | Glossary On
Versions: 1 2 3 4 5 6 7 8 9 10 11 12 13 14 15 16 17 18 19
000
FTUS43 KLMK 261157 CCA
TAFLEX
TAF COR
KLEX 261157Z 2612/2712 VRB03KT 3SM BR SCT004 SCT250
     FM261300 23006KT P6SM SCT050 SCT250
     FM262000 22007KT P6SM VCTS SCT050CB BKN250
      TEMPO 2620/2624 VRB10G20KT 3SM -TSRA BR
     FM270000 VRB03KT P6SM SCT250=

USA.gov is the U.S. government's official web portal to all federal, state and local government web resources and services.